sensor_id;sensor_type;location;lat;lon;timestamp;temperature;humidity
17421;DHT22;8828;48.800;9.540;2022-11-11T00:01:11;8.60;99.90
17421;DHT22;8828;48.800;9.540;2022-11-11T00:03:40;8.60;99.90
17421;DHT22;8828;48.800;9.540;2022-11-11T00:06:10;8.50;99.90
17421;DHT22;8828;48.800;9.540;2022-11-11T00:08:38;8.50;99.90
17421;DHT22;8828;48.800;9.540;2022-11-11T00:11:10;8.50;99.90
17421;DHT22;8828;48.800;9.540;2022-11-11T00:13:38;8.50;99.90
17421;DHT22;8828;48.800;9.540;2022-11-11T00:16:08;8.50;99.90
17421;DHT22;8828;48.800;9.540;2022-11-11T00:18:37;8.50;99.90
17421;DHT22;8828;48.800;9.540;2022-11-11T00:21:22;8.50;99.90
17421;DHT22;8828;48.800;9.540;2022-11-11T00:24:20;8.50;99.90
17421;DHT22;8828;48.800;9.540;2022-11-11T00:27:08;8.50;99.90
17421;DHT22;8828;48.800;9.540;2022-11-11T00:29:36;8.50;99.90
17421;DHT22;8828;48.800;9.540;2022-11-11T00:32:05;8.50;99.90
17421;DHT22;8828;48.800;9.540;2022-11-11T00:34:54;8.40;99.90
17421;DHT22;8828;48.800;9.540;2022-11-11T00:37:41;8.40;99.90
17421;DHT22;8828;48.800;9.540;2022-11-11T00:40:11;8.40;99.90
17421;DHT22;8828;48.800;9.540;2022-11-11T00:42:40;8.40;99.90
17421;DHT22;8828;48.800;9.540;2022-11-11T00:45:09;8.40;99.90
17421;DHT22;8828;48.800;9.540;2022-11-11T00:47:37;8.30;99.90
17421;DHT22;8828;48.800;9.540;2022-11-11T00:50:25;8.30;99.90
17421;DHT22;8828;48.800;9.540;2022-11-11T00:53:12;8.30;99.90
17421;DHT22;8828;48.800;9.540;2022-11-11T00:55:40;8.30;99.90
17421;DHT22;8828;48.800;9.540;2022-11-11T00:58:09;8.20;99.90
17421;DHT22;8828;48.800;9.540;2022-11-11T01:00:37;8.20;99.90
17421;DHT22;8828;48.800;9.540;2022-11-11T01:03:05;8.30;99.90
17421;DHT22;8828;48.800;9.540;2022-11-11T01:05:35;8.20;99.90
17421;DHT22;8828;48.800;9.540;2022-11-11T01:08:03;8.20;99.90
17421;DHT22;8828;48.800;9.540;2022-11-11T01:10:32;8.20;99.90
17421;DHT22;8828;48.800;9.540;2022-11-11T01:13:16;8.20;99.90
17421;DHT22;8828;48.800;9.540;2022-11-11T01:15:46;8.20;99.90
17421;DHT22;8828;48.800;9.540;2022-11-11T01:18:17;8.10;99.90
17421;DHT22;8828;48.800;9.540;2022-11-11T01:20:46;8.10;99.90
17421;DHT22;8828;48.800;9.540;2022-11-11T01:23:14;8.10;99.90
17421;DHT22;8828;48.800;9.540;2022-11-11T01:25:42;8.00;99.90
17421;DHT22;8828;48.800;9.540;2022-11-11T01:28:13;8.00;99.90
17421;DHT22;8828;48.800;9.540;2022-11-11T01:30:41;8.00;99.90
17421;DHT22;8828;48.800;9.540;2022-11-11T01:33:10;7.90;99.90
17421;DHT22;8828;48.800;9.540;2022-11-11T01:35:39;7.90;99.90
17421;DHT22;8828;48.800;9.540;2022-11-11T01:38:07;8.00;99.90
17421;DHT22;8828;48.800;9.540;2022-11-11T01:40:42;7.90;99.90
17421;DHT22;8828;48.800;9.540;2022-11-11T01:43:21;7.90;99.90
17421;DHT22;8828;48.800;9.540;2022-11-11T01:45:54;7.90;99.90
17421;DHT22;8828;48.800;9.540;2022-11-11T01:48:28;7.90;99.90
17421;DHT22;8828;48.800;9.540;2022-11-11T01:51:22;7.80;99.90
17421;DHT22;8828;48.800;9.540;2022-11-11T01:53:56;7.80;99.90
17421;DHT22;8828;48.800;9.540;2022-11-11T01:56:26;7.90;99.90
17421;DHT22;8828;48.800;9.540;2022-11-11T01:58:59;7.80;99.90
17421;DHT22;8828;48.800;9.540;2022-11-11T02:01:28;7.80;99.90
17421;DHT22;8828;48.800;9.540;2022-11-11T02:03:58;7.80;99.90
17421;DHT22;8828;48.800;9.540;2022-11-11T02:06:46;7.70;99.90
17421;DHT22;8828;48.800;9.540;2022-11-11T02:09:15;7.70;99.90
17421;DHT22;8828;48.800;9.540;2022-11-11T02:11:43;7.70;99.90
17421;DHT22;8828;48.800;9.540;2022-11-11T02:14:31;7.70;99.90
17421;DHT22;8828;48.800;9.540;2022-11-11T02:17:04;7.70;99.90
17421;DHT22;8828;48.800;9.540;2022-11-11T02:19:41;7.70;99.90
17421;DHT22;8828;48.800;9.540;2022-11-11T02:22:13;7.60;99.90
17421;DHT22;8828;48.800;9.540;2022-11-11T02:24:45;7.70;99.90
17421;DHT22;8828;48.800;9.540;2022-11-11T02:27:15;7.60;99.90
17421;DHT22;8828;48.800;9.540;2022-11-11T02:29:46;7.60;99.90
17421;DHT22;8828;48.800;9.540;2022-11-11T02:32:14;7.60;99.90
17421;DHT22;8828;48.800;9.540;2022-11-11T02:34:43;7.50;99.90
17421;DHT22;8828;48.800;9.540;2022-11-11T02:37:11;7.50;99.90
17421;DHT22;8828;48.800;9.540;2022-11-11T02:39:42;7.50;99.90
17421;DHT22;8828;48.800;9.540;2022-11-11T02:42:30;7.50;99.90
17421;DHT22;8828;48.800;9.540;2022-11-11T02:45:00;7.50;99.90
17421;DHT22;8828;48.800;9.540;2022-11-11T02:47:28;7.50;99.90
17421;DHT22;8828;48.800;9.540;2022-11-11T02:49:56;7.40;99.90
17421;DHT22;8828;48.800;9.540;2022-11-11T02:52:24;7.50;99.90
17421;DHT22;8828;48.800;9.540;2022-11-11T02:54:52;7.50;99.90
17421;DHT22;8828;48.800;9.540;2022-11-11T02:57:20;7.40;99.90
17421;DHT22;8828;48.800;9.540;2022-11-11T02:59:50;7.40;99.90
17421;DHT22;8828;48.800;9.540;2022-11-11T03:02:18;7.40;99.90
17421;DHT22;8828;48.800;9.540;2022-11-11T03:04:46;7.40;99.90
17421;DHT22;8828;48.800;9.540;2022-11-11T03:07:14;7.30;99.90
17421;DHT22;8828;48.800;9.540;2022-11-11T03:09:42;7.30;99.90
17421;DHT22;8828;48.800;9.540;2022-11-11T03:12:10;7.30;99.90
17421;DHT22;8828;48.800;9.540;2022-11-11T03:14:38;7.30;99.90
17421;DHT22;8828;48.800;9.540;2022-11-11T03:17:08;7.30;99.90
17421;DHT22;8828;48.800;9.540;2022-11-11T03:19:54;7.30;99.90
17421;DHT22;8828;48.800;9.540;2022-11-11T03:22:42;7.30;99.90
17421;DHT22;8828;48.800;9.540;2022-11-11T03:25:25;7.30;99.90
17421;DHT22;8828;48.800;9.540;2022-11-11T03:28:05;7.30;99.90
17421;DHT22;8828;48.800;9.540;2022-11-11T03:30:34;7.30;99.90
17421;DHT22;8828;48.800;9.540;2022-11-11T03:33:03;7.30;99.90
17421;DHT22;8828;48.800;9.540;2022-11-11T03:35:32;7.30;99.90
17421;DHT22;8828;48.800;9.540;2022-11-11T03:38:00;7.20;99.90
17421;DHT22;8828;48.800;9.540;2022-11-11T03:40:46;7.20;99.90
17421;DHT22;8828;48.800;9.540;2022-11-11T03:43:16;7.20;99.90
17421;DHT22;8828;48.800;9.540;2022-11-11T03:45:44;7.20;99.90
17421;DHT22;8828;48.800;9.540;2022-11-11T03:48:14;7.20;99.90
17421;DHT22;8828;48.800;9.540;2022-11-11T03:50:42;7.20;99.90
17421;DHT22;8828;48.800;9.540;2022-11-11T03:53:13;7.30;99.90
17421;DHT22;8828;48.800;9.540;2022-11-11T03:55:41;7.20;99.90
17421;DHT22;8828;48.800;9.540;2022-11-11T03:58:09;7.20;99.90
17421;DHT22;8828;48.800;9.540;2022-11-11T04:00:37;7.20;99.90
17421;DHT22;8828;48.800;9.540;2022-11-11T04:03:07;7.20;99.90
17421;DHT22;8828;48.800;9.540;2022-11-11T04:05:56;7.20;99.90
17421;DHT22;8828;48.800;9.540;2022-11-11T04:08:41;7.10;99.90
17421;DHT22;8828;48.800;9.540;2022-11-11T04:11:28;7.10;99.90
17421;DHT22;8828;48.800;9.540;2022-11-11T04:13:59;7.10;99.90
17421;DHT22;8828;48.800;9.540;2022-11-11T04:16:45;7.10;99.90
17421;DHT22;8828;48.800;9.540;2022-11-11T04:19:13;7.10;99.90
17421;DHT22;8828;48.800;9.540;2022-11-11T04:22:00;7.10;99.90
17421;DHT22;8828;48.800;9.540;2022-11-11T04:24:28;7.10;99.90
17421;DHT22;8828;48.800;9.540;2022-11-11T04:27:14;7.00;99.90
17421;DHT22;8828;48.800;9.540;2022-11-11T04:29:43;7.10;99.90
17421;DHT22;8828;48.800;9.540;2022-11-11T04:32:14;7.00;99.90
17421;DHT22;8828;48.800;9.540;2022-11-11T04:35:02;7.00;99.90
17421;DHT22;8828;48.800;9.540;2022-11-11T04:37:33;7.00;99.90
17421;DHT22;8828;48.800;9.540;2022-11-11T04:40:01;6.90;99.90
17421;DHT22;8828;48.800;9.540;2022-11-11T04:42:47;6.90;99.90
17421;DHT22;8828;48.800;9.540;2022-11-11T04:45:15;6.90;99.90
17421;DHT22;8828;48.800;9.540;2022-11-11T04:47:55;6.90;99.90
17421;DHT22;8828;48.800;9.540;2022-11-11T04:50:25;6.90;99.90
17421;DHT22;8828;48.800;9.540;2022-11-11T04:52:55;6.90;99.90
17421;DHT22;8828;48.800;9.540;2022-11-11T04:55:23;6.90;99.90
17421;DHT22;8828;48.800;9.540;2022-11-11T04:58:08;6.80;99.90
17421;DHT22;8828;48.800;9.540;2022-11-11T05:00:37;6.80;99.90
17421;DHT22;8828;48.800;9.540;2022-11-11T05:03:05;6.80;99.90
17421;DHT22;8828;48.800;9.540;2022-11-11T05:05:46;6.70;99.90
17421;DHT22;8828;48.800;9.540;2022-11-11T05:08:35;6.70;99.90
17421;DHT22;8828;48.800;9.540;2022-11-11T05:11:22;6.60;99.90
17421;DHT22;8828;48.800;9.540;2022-11-11T05:13:50;6.60;99.90
17421;DHT22;8828;48.800;9.540;2022-11-11T05:16:38;6.60;99.90
17421;DHT22;8828;48.800;9.540;2022-11-11T05:19:24;6.60;99.90
17421;DHT22;8828;48.800;9.540;2022-11-11T05:22:12;6.60;99.90
17421;DHT22;8828;48.800;9.540;2022-11-11T05:24:43;6.60;99.90
17421;DHT22;8828;48.800;9.540;2022-11-11T05:27:28;6.60;99.90
17421;DHT22;8828;48.800;9.540;2022-11-11T05:29:56;6.60;99.90
17421;DHT22;8828;48.800;9.540;2022-11-11T05:32:25;6.60;99.90
17421;DHT22;8828;48.800;9.540;2022-11-11T05:34:53;6.60;99.90
17421;DHT22;8828;48.800;9.540;2022-11-11T05:37:21;6.60;99.90
17421;DHT22;8828;48.800;9.540;2022-11-11T05:39:50;6.60;99.90
17421;DHT22;8828;48.800;9.540;2022-11-11T05:42:18;6.60;99.90
17421;DHT22;8828;48.800;9.540;2022-11-11T05:44:46;6.50;99.90
17421;DHT22;8828;48.800;9.540;2022-11-11T05:47:14;6.50;99.90
17421;DHT22;8828;48.800;9.540;2022-11-11T05:49:42;6.50;99.90
17421;DHT22;8828;48.800;9.540;2022-11-11T05:52:11;6.50;99.90
17421;DHT22;8828;48.800;9.540;2022-11-11T05:54:40;6.50;99.90
17421;DHT22;8828;48.800;9.540;2022-11-11T05:57:09;6.40;99.90
17421;DHT22;8828;48.800;9.540;2022-11-11T05:59:37;6.40;99.90
17421;DHT22;8828;48.800;9.540;2022-11-11T06:02:05;6.40;99.90
17421;DHT22;8828;48.800;9.540;2022-11-11T06:04:33;6.40;99.90
17421;DHT22;8828;48.800;9.540;2022-11-11T06:07:01;6.40;99.90
17421;DHT22;8828;48.800;9.540;2022-11-11T06:09:30;6.40;99.90
17421;DHT22;8828;48.800;9.540;2022-11-11T06:11:58;6.30;99.90
17421;DHT22;8828;48.800;9.540;2022-11-11T06:14:27;6.30;99.90
17421;DHT22;8828;48.800;9.540;2022-11-11T06:16:55;6.30;99.90
17421;DHT22;8828;48.800;9.540;2022-11-11T06:19:23;6.30;99.90
17421;DHT22;8828;48.800;9.540;2022-11-11T06:21:51;6.20;99.90
17421;DHT22;8828;48.800;9.540;2022-11-11T06:24:26;6.30;99.90
17421;DHT22;8828;48.800;9.540;2022-11-11T06:26:54;6.30;99.90
17421;DHT22;8828;48.800;9.540;2022-11-11T06:29:21;6.30;99.90
17421;DHT22;8828;48.800;9.540;2022-11-11T06:31:51;6.30;99.90
17421;DHT22;8828;48.800;9.540;2022-11-11T06:34:18;6.30;99.90
17421;DHT22;8828;48.800;9.540;2022-11-11T06:36:46;6.40;99.90
17421;DHT22;8828;48.800;9.540;2022-11-11T06:39:14;6.40;99.90
17421;DHT22;8828;48.800;9.540;2022-11-11T06:41:42;6.40;99.90
17421;DHT22;8828;48.800;9.540;2022-11-11T06:44:10;6.50;99.90
17421;DHT22;8828;48.800;9.540;2022-11-11T06:46:38;6.50;99.90
17421;DHT22;8828;48.800;9.540;2022-11-11T06:49:07;6.50;99.90
17421;DHT22;8828;48.800;9.540;2022-11-11T06:51:35;6.50;99.90
17421;DHT22;8828;48.800;9.540;2022-11-11T06:54:03;6.50;99.90
17421;DHT22;8828;48.800;9.540;2022-11-11T06:56:31;6.60;99.90
17421;DHT22;8828;48.800;9.540;2022-11-11T06:58:59;6.70;99.90
17421;DHT22;8828;48.800;9.540;2022-11-11T07:01:27;6.80;99.90
17421;DHT22;8828;48.800;9.540;2022-11-11T07:03:55;6.80;99.90
17421;DHT22;8828;48.800;9.540;2022-11-11T07:06:24;6.90;99.90
17421;DHT22;8828;48.800;9.540;2022-11-11T07:08:52;7.00;99.90
17421;DHT22;8828;48.800;9.540;2022-11-11T07:11:20;7.00;99.90
17421;DHT22;8828;48.800;9.540;2022-11-11T07:13:48;7.00;99.90
17421;DHT22;8828;48.800;9.540;2022-11-11T07:16:16;7.00;99.90
17421;DHT22;8828;48.800;9.540;2022-11-11T07:18:44;7.00;99.90
17421;DHT22;8828;48.800;9.540;2022-11-11T07:21:12;7.00;99.90
17421;DHT22;8828;48.800;9.540;2022-11-11T07:23:41;7.00;99.90
17421;DHT22;8828;48.800;9.540;2022-11-11T07:26:09;7.00;99.90
17421;DHT22;8828;48.800;9.540;2022-11-11T07:28:37;7.00;99.90
17421;DHT22;8828;48.800;9.540;2022-11-11T07:31:05;7.00;99.90
17421;DHT22;8828;48.800;9.540;2022-11-11T07:33:32;7.10;99.90
17421;DHT22;8828;48.800;9.540;2022-11-11T07:36:01;7.10;99.90
17421;DHT22;8828;48.800;9.540;2022-11-11T07:38:29;7.10;99.90
17421;DHT22;8828;48.800;9.540;2022-11-11T07:40:58;7.20;99.90
17421;DHT22;8828;48.800;9.540;2022-11-11T07:43:26;7.30;99.90
17421;DHT22;8828;48.800;9.540;2022-11-11T07:45:54;7.30;99.90
17421;DHT22;8828;48.800;9.540;2022-11-11T07:48:22;7.40;99.90
17421;DHT22;8828;48.800;9.540;2022-11-11T07:50:51;7.40;99.90
17421;DHT22;8828;48.800;9.540;2022-11-11T07:53:19;7.60;99.90
17421;DHT22;8828;48.800;9.540;2022-11-11T07:55:48;7.60;99.90
17421;DHT22;8828;48.800;9.540;2022-11-11T07:58:17;7.70;99.90
17421;DHT22;8828;48.800;9.540;2022-11-11T08:00:45;7.70;99.90
17421;DHT22;8828;48.800;9.540;2022-11-11T08:03:13;7.80;99.90
17421;DHT22;8828;48.800;9.540;2022-11-11T08:05:41;7.90;99.90
17421;DHT22;8828;48.800;9.540;2022-11-11T08:08:09;8.00;99.90
17421;DHT22;8828;48.800;9.540;2022-11-11T08:10:37;8.00;99.90
17421;DHT22;8828;48.800;9.540;2022-11-11T08:13:05;8.10;99.90
17421;DHT22;8828;48.800;9.540;2022-11-11T08:15:54;8.10;99.90
17421;DHT22;8828;48.800;9.540;2022-11-11T08:18:23;8.20;99.90
17421;DHT22;8828;48.800;9.540;2022-11-11T08:20:52;8.30;99.90
17421;DHT22;8828;48.800;9.540;2022-11-11T08:23:21;8.30;99.90
17421;DHT22;8828;48.800;9.540;2022-11-11T08:26:18;8.40;99.90
17421;DHT22;8828;48.800;9.540;2022-11-11T08:28:55;8.50;99.90
17421;DHT22;8828;48.800;9.540;2022-11-11T08:31:24;8.60;99.90
17421;DHT22;8828;48.800;9.540;2022-11-11T08:33:53;8.60;99.90
17421;DHT22;8828;48.800;9.540;2022-11-11T08:36:22;8.70;99.90
17421;DHT22;8828;48.800;9.540;2022-11-11T08:38:51;8.70;99.90
17421;DHT22;8828;48.800;9.540;2022-11-11T08:41:19;8.80;99.90
17421;DHT22;8828;48.800;9.540;2022-11-11T08:43:53;8.80;99.90
17421;DHT22;8828;48.800;9.540;2022-11-11T08:46:22;8.90;99.90
17421;DHT22;8828;48.800;9.540;2022-11-11T08:48:51;8.90;99.90
17421;DHT22;8828;48.800;9.540;2022-11-11T08:51:19;8.90;99.90
17421;DHT22;8828;48.800;9.540;2022-11-11T08:53:47;8.90;99.90
17421;DHT22;8828;48.800;9.540;2022-11-11T08:56:15;8.90;99.90
17421;DHT22;8828;48.800;9.540;2022-11-11T08:58:43;8.90;99.90
17421;DHT22;8828;48.800;9.540;2022-11-11T09:01:11;9.00;99.90
17421;DHT22;8828;48.800;9.540;2022-11-11T09:03:40;9.00;99.90
17421;DHT22;8828;48.800;9.540;2022-11-11T09:06:11;9.20;99.90
17421;DHT22;8828;48.800;9.540;2022-11-11T09:08:41;9.30;99.90
17421;DHT22;8828;48.800;9.540;2022-11-11T09:11:10;9.40;99.90
17421;DHT22;8828;48.800;9.540;2022-11-11T09:13:38;9.50;99.90
17421;DHT22;8828;48.800;9.540;2022-11-11T09:16:07;9.70;99.90
17421;DHT22;8828;48.800;9.540;2022-11-11T09:18:35;9.80;99.90
17421;DHT22;8828;48.800;9.540;2022-11-11T09:21:04;10.00;99.90
17421;DHT22;8828;48.800;9.540;2022-11-11T09:23:33;10.30;99.90
17421;DHT22;8828;48.800;9.540;2022-11-11T09:26:01;10.70;99.90
17421;DHT22;8828;48.800;9.540;2022-11-11T09:28:31;11.20;99.90
17421;DHT22;8828;48.800;9.540;2022-11-11T09:31:00;11.90;99.90
17421;DHT22;8828;48.800;9.540;2022-11-11T09:33:48;12.70;99.90
17421;DHT22;8828;48.800;9.540;2022-11-11T09:36:16;13.30;99.90
17421;DHT22;8828;48.800;9.540;2022-11-11T09:38:45;13.80;99.90
17421;DHT22;8828;48.800;9.540;2022-11-11T09:41:18;14.50;99.90
17421;DHT22;8828;48.800;9.540;2022-11-11T09:43:53;15.00;99.90
17421;DHT22;8828;48.800;9.540;2022-11-11T09:46:30;14.90;99.90
17421;DHT22;8828;48.800;9.540;2022-11-11T09:49:12;14.70;99.90
17421;DHT22;8828;48.800;9.540;2022-11-11T09:51:47;14.50;99.90
17421;DHT22;8828;48.800;9.540;2022-11-11T09:54:27;14.60;99.90
17421;DHT22;8828;48.800;9.540;2022-11-11T09:56:59;15.50;99.90
17421;DHT22;8828;48.800;9.540;2022-11-11T09:59:35;16.80;99.90
17421;DHT22;8828;48.800;9.540;2022-11-11T10:02:11;18.00;99.90
17421;DHT22;8828;48.800;9.540;2022-11-11T10:04:50;19.00;99.90
17421;DHT22;8828;48.800;9.540;2022-11-11T10:07:25;19.30;99.90
17421;DHT22;8828;48.800;9.540;2022-11-11T10:10:02;19.40;99.90
17421;DHT22;8828;48.800;9.540;2022-11-11T10:12:38;19.40;99.90
17421;DHT22;8828;48.800;9.540;2022-11-11T10:15:11;19.20;99.90
17421;DHT22;8828;48.800;9.540;2022-11-11T10:17:48;19.50;99.90
17421;DHT22;8828;48.800;9.540;2022-11-11T10:20:21;20.10;99.90
17421;DHT22;8828;48.800;9.540;2022-11-11T10:22:53;20.80;99.90
17421;DHT22;8828;48.800;9.540;2022-11-11T10:25:24;21.70;99.90
17421;DHT22;8828;48.800;9.540;2022-11-11T10:27:54;22.60;99.90
17421;DHT22;8828;48.800;9.540;2022-11-11T10:30:25;23.50;97.30
17421;DHT22;8828;48.800;9.540;2022-11-11T10:33:00;24.10;95.60
17421;DHT22;8828;48.800;9.540;2022-11-11T10:35:30;24.30;93.50
17421;DHT22;8828;48.800;9.540;2022-11-11T10:38:05;24.00;92.90
17421;DHT22;8828;48.800;9.540;2022-11-11T10:40:42;23.50;92.30
17421;DHT22;8828;48.800;9.540;2022-11-11T10:43:20;22.60;92.90
17421;DHT22;8828;48.800;9.540;2022-11-11T10:45:56;22.20;93.60
17421;DHT22;8828;48.800;9.540;2022-11-11T10:48:32;22.20;94.10
17421;DHT22;8828;48.800;9.540;2022-11-11T10:51:10;22.10;94.30
17421;DHT22;8828;48.800;9.540;2022-11-11T10:53:46;21.90;94.00
17421;DHT22;8828;48.800;9.540;2022-11-11T10:56:22;21.80;94.10
17421;DHT22;8828;48.800;9.540;2022-11-11T10:58:57;21.70;94.20
17421;DHT22;8828;48.800;9.540;2022-11-11T11:01:29;21.60;94.30
17421;DHT22;8828;48.800;9.540;2022-11-11T11:04:03;21.60;94.30
17421;DHT22;8828;48.800;9.540;2022-11-11T11:06:35;21.60;93.40
17421;DHT22;8828;48.800;9.540;2022-11-11T11:09:10;21.30;93.50
17421;DHT22;8828;48.800;9.540;2022-11-11T11:11:47;21.20;93.80
17421;DHT22;8828;48.800;9.540;2022-11-11T11:14:19;20.90;93.80
17421;DHT22;8828;48.800;9.540;2022-11-11T11:16:50;20.70;94.30
17421;DHT22;8828;48.800;9.540;2022-11-11T11:19:22;20.70;94.70
17421;DHT22;8828;48.800;9.540;2022-11-11T11:21:52;20.60;94.80
17421;DHT22;8828;48.800;9.540;2022-11-11T11:24:23;20.80;94.90
17421;DHT22;8828;48.800;9.540;2022-11-11T11:26:53;21.10;94.70
17421;DHT22;8828;48.800;9.540;2022-11-11T11:29:27;21.40;94.70
17421;DHT22;8828;48.800;9.540;2022-11-11T11:31:55;21.50;94.30
17421;DHT22;8828;48.800;9.540;2022-11-11T11:34:48;21.50;94.10
17421;DHT22;8828;48.800;9.540;2022-11-11T11:37:17;21.60;93.80
17421;DHT22;8828;48.800;9.540;2022-11-11T11:39:46;21.90;93.40
17421;DHT22;8828;48.800;9.540;2022-11-11T11:42:31;22.20;92.80
17421;DHT22;8828;48.800;9.540;2022-11-11T11:45:15;22.60;91.90
17421;DHT22;8828;48.800;9.540;2022-11-11T11:47:51;23.10;91.70
17421;DHT22;8828;48.800;9.540;2022-11-11T11:50:46;23.40;91.20
17421;DHT22;8828;48.800;9.540;2022-11-11T11:53:38;23.50;90.70
17421;DHT22;8828;48.800;9.540;2022-11-11T11:56:16;23.90;90.50
17421;DHT22;8828;48.800;9.540;2022-11-11T11:58:56;24.40;89.20
17421;DHT22;8828;48.800;9.540;2022-11-11T12:01:31;25.00;87.00
17421;DHT22;8828;48.800;9.540;2022-11-11T12:04:23;25.40;85.40
17421;DHT22;8828;48.800;9.540;2022-11-11T12:07:01;25.50;84.60
17421;DHT22;8828;48.800;9.540;2022-11-11T12:09:40;25.20;84.90
17421;DHT22;8828;48.800;9.540;2022-11-11T12:12:19;24.70;85.50
17421;DHT22;8828;48.800;9.540;2022-11-11T12:15:00;24.00;86.50
17421;DHT22;8828;48.800;9.540;2022-11-11T12:17:39;23.30;88.70
17421;DHT22;8828;48.800;9.540;2022-11-11T12:20:16;22.80;90.00
17421;DHT22;8828;48.800;9.540;2022-11-11T12:23:03;22.60;90.70
17421;DHT22;8828;48.800;9.540;2022-11-11T12:25:41;22.60;91.00
17421;DHT22;8828;48.800;9.540;2022-11-11T12:28:23;22.50;91.20
17421;DHT22;8828;48.800;9.540;2022-11-11T12:31:12;22.60;90.80
17421;DHT22;8828;48.800;9.540;2022-11-11T12:33:56;22.70;90.60
17421;DHT22;8828;48.800;9.540;2022-11-11T12:36:35;22.80;90.60
17421;DHT22;8828;48.800;9.540;2022-11-11T12:39:28;22.90;90.40
17421;DHT22;8828;48.800;9.540;2022-11-11T12:42:09;22.70;90.60
17421;DHT22;8828;48.800;9.540;2022-11-11T12:44:47;22.10;91.10
17421;DHT22;8828;48.800;9.540;2022-11-11T12:47:26;21.40;92.10
17421;DHT22;8828;48.800;9.540;2022-11-11T12:50:06;20.80;93.20
17421;DHT22;8828;48.800;9.540;2022-11-11T12:52:47;20.30;94.20
17421;DHT22;8828;48.800;9.540;2022-11-11T12:55:23;19.80;95.30
17421;DHT22;8828;48.800;9.540;2022-11-11T12:58:09;19.60;96.20
17421;DHT22;8828;48.800;9.540;2022-11-11T13:00:47;19.60;95.90
17421;DHT22;8828;48.800;9.540;2022-11-11T13:03:34;19.70;96.20
17421;DHT22;8828;48.800;9.540;2022-11-11T13:06:10;19.80;96.50
17421;DHT22;8828;48.800;9.540;2022-11-11T13:08:53;19.80;96.10
17421;DHT22;8828;48.800;9.540;2022-11-11T13:11:30;19.80;96.20
17421;DHT22;8828;48.800;9.540;2022-11-11T13:14:22;19.50;96.70
17421;DHT22;8828;48.800;9.540;2022-11-11T13:16:57;19.20;97.00
17421;DHT22;8828;48.800;9.540;2022-11-11T13:19:36;18.90;97.50
17421;DHT22;8828;48.800;9.540;2022-11-11T13:22:13;18.60;98.00
17421;DHT22;8828;48.800;9.540;2022-11-11T13:24:42;18.30;98.50
17421;DHT22;8828;48.800;9.540;2022-11-11T13:27:15;18.10;99.30
17421;DHT22;8828;48.800;9.540;2022-11-11T13:30:07;17.90;99.90
17421;DHT22;8828;48.800;9.540;2022-11-11T13:32:41;17.70;99.90
17421;DHT22;8828;48.800;9.540;2022-11-11T13:35:20;17.60;99.90
17421;DHT22;8828;48.800;9.540;2022-11-11T13:37:49;17.50;99.90
17421;DHT22;8828;48.800;9.540;2022-11-11T13:40:38;17.40;99.90
17421;DHT22;8828;48.800;9.540;2022-11-11T13:43:15;17.30;99.90
17421;DHT22;8828;48.800;9.540;2022-11-11T13:45:50;17.20;99.90
17421;DHT22;8828;48.800;9.540;2022-11-11T13:48:23;17.10;99.90
17421;DHT22;8828;48.800;9.540;2022-11-11T13:51:20;16.90;99.90
17421;DHT22;8828;48.800;9.540;2022-11-11T13:53:49;16.80;99.90
17421;DHT22;8828;48.800;9.540;2022-11-11T13:56:25;16.80;99.90
17421;DHT22;8828;48.800;9.540;2022-11-11T13:58:54;16.70;99.90
17421;DHT22;8828;48.800;9.540;2022-11-11T14:01:23;16.60;99.90
17421;DHT22;8828;48.800;9.540;2022-11-11T14:04:03;16.50;99.90
17421;DHT22;8828;48.800;9.540;2022-11-11T14:06:50;16.50;99.90
17421;DHT22;8828;48.800;9.540;2022-11-11T14:09:50;16.40;99.90
17421;DHT22;8828;48.800;9.540;2022-11-11T14:12:20;16.30;99.90
17421;DHT22;8828;48.800;9.540;2022-11-11T14:14:55;16.20;99.90
17421;DHT22;8828;48.800;9.540;2022-11-11T14:17:29;16.20;99.90
17421;DHT22;8828;48.800;9.540;2022-11-11T14:19:57;16.10;99.90
17421;DHT22;8828;48.800;9.540;2022-11-11T14:22:31;16.10;99.90
17421;DHT22;8828;48.800;9.540;2022-11-11T14:25:17;16.00;99.90
17421;DHT22;8828;48.800;9.540;2022-11-11T14:27:47;15.80;99.90
17421;DHT22;8828;48.800;9.540;2022-11-11T14:30:38;15.70;99.90
17421;DHT22;8828;48.800;9.540;2022-11-11T14:33:15;15.60;99.90
17421;DHT22;8828;48.800;9.540;2022-11-11T14:35:55;15.40;99.90
17421;DHT22;8828;48.800;9.540;2022-11-11T14:38:40;15.30;99.90
17421;DHT22;8828;48.800;9.540;2022-11-11T14:41:46;15.10;99.90
17421;DHT22;8828;48.800;9.540;2022-11-11T14:44:37;15.00;99.90
17421;DHT22;8828;48.800;9.540;2022-11-11T14:47:30;14.80;99.90
17421;DHT22;8828;48.800;9.540;2022-11-11T14:49:59;14.60;99.90
17421;DHT22;8828;48.800;9.540;2022-11-11T14:52:31;14.50;99.90
17421;DHT22;8828;48.800;9.540;2022-11-11T14:55:12;14.40;99.90
17421;DHT22;8828;48.800;9.540;2022-11-11T14:57:45;14.30;99.90
17421;DHT22;8828;48.800;9.540;2022-11-11T15:00:16;14.20;99.90
17421;DHT22;8828;48.800;9.540;2022-11-11T15:02:49;14.10;99.90
17421;DHT22;8828;48.800;9.540;2022-11-11T15:05:26;14.00;99.90
17421;DHT22;8828;48.800;9.540;2022-11-11T15:08:15;13.90;99.90
17421;DHT22;8828;48.800;9.540;2022-11-11T15:11:11;13.80;99.90
17421;DHT22;8828;48.800;9.540;2022-11-11T15:14:00;13.70;99.90
17421;DHT22;8828;48.800;9.540;2022-11-11T15:16:45;13.60;99.90
17421;DHT22;8828;48.800;9.540;2022-11-11T15:19:37;13.50;99.90
17421;DHT22;8828;48.800;9.540;2022-11-11T15:22:29;13.40;99.90
17421;DHT22;8828;48.800;9.540;2022-11-11T15:25:05;13.40;99.90
17421;DHT22;8828;48.800;9.540;2022-11-11T15:27:43;13.20;99.90
17421;DHT22;8828;48.800;9.540;2022-11-11T15:30:15;13.20;99.90
17421;DHT22;8828;48.800;9.540;2022-11-11T15:33:01;13.10;99.90
17421;DHT22;8828;48.800;9.540;2022-11-11T15:35:35;13.00;99.90
17421;DHT22;8828;48.800;9.540;2022-11-11T15:38:10;12.90;99.90
17421;DHT22;8828;48.800;9.540;2022-11-11T15:40:44;12.90;99.90
17421;DHT22;8828;48.800;9.540;2022-11-11T15:43:17;12.70;99.90
17421;DHT22;8828;48.800;9.540;2022-11-11T15:45:50;12.70;99.90
17421;DHT22;8828;48.800;9.540;2022-11-11T15:48:21;12.60;99.90
17421;DHT22;8828;48.800;9.540;2022-11-11T15:50:49;12.50;99.90
17421;DHT22;8828;48.800;9.540;2022-11-11T15:53:22;12.50;99.90
17421;DHT22;8828;48.800;9.540;2022-11-11T15:55:52;12.40;99.90
17421;DHT22;8828;48.800;9.540;2022-11-11T15:58:29;12.20;99.90
17421;DHT22;8828;48.800;9.540;2022-11-11T16:00:59;12.10;99.90
17421;DHT22;8828;48.800;9.540;2022-11-11T16:03:32;12.00;99.90
17421;DHT22;8828;48.800;9.540;2022-11-11T16:06:03;12.00;99.90
17421;DHT22;8828;48.800;9.540;2022-11-11T16:08:32;11.90;99.90
17421;DHT22;8828;48.800;9.540;2022-11-11T16:11:01;11.80;99.90
17421;DHT22;8828;48.800;9.540;2022-11-11T16:13:34;11.80;99.90
17421;DHT22;8828;48.800;9.540;2022-11-11T16:16:09;11.70;99.90
17421;DHT22;8828;48.800;9.540;2022-11-11T16:18:42;11.70;99.90
17421;DHT22;8828;48.800;9.540;2022-11-11T16:21:15;11.60;99.90
17421;DHT22;8828;48.800;9.540;2022-11-11T16:23:46;11.50;99.90
17421;DHT22;8828;48.800;9.540;2022-11-11T16:26:15;11.50;99.90
17421;DHT22;8828;48.800;9.540;2022-11-11T16:28:50;11.50;99.90
17421;DHT22;8828;48.800;9.540;2022-11-11T16:31:20;11.40;99.90
17421;DHT22;8828;48.800;9.540;2022-11-11T16:33:48;11.40;99.90
17421;DHT22;8828;48.800;9.540;2022-11-11T16:36:16;11.30;99.90
17421;DHT22;8828;48.800;9.540;2022-11-11T16:38:44;11.30;99.90